Zephyr, Texas
Current Conditions -  °F | °C
As of 11:55 AM on Thursday 23 Oct 2014 (Local Time) from KBWD Reporting Station
Scattered Clouds Scattered Clouds  
Wind Chill: 73°   Ceiling: Unl
Heat Index: 73°   Visibility: 10mi
Dew Point: 59°   Wind: 5mph
Humidity: 61%   Direction: 170°S
Pressure: 30.16"   Gusts: NA
Location:  31.68°N, 98.79°W
Report Text: KBWD 231655Z AUTO 17004KT 10SM SCT070 23/15 A3016 RMK AO2
Loading
Personal Weather Stations






























Interactive Weather Map
Tropical Storm Tracking
New forecast layout! Learn more

10-Day Weather Forecast

Advertisements
Track Severe Weather on mobile